Anthon, Iowa
Current Conditions -  °F | °C
As of 8:52 AM on Sunday 23 Nov 2014 (Local Time) from KSUX Reporting Station
Few Clouds Few Clouds  
Wind Chill: 40°   Ceiling: Unl
Heat Index: 46°   Visibility: 10mi
Dew Point: 38°   Wind: 14mph
Humidity: 73%   Direction: 320°NW
Pressure: 29.51"   Gusts: NA
Location:  42.39°N, 95.87°W
Report Text: KSUX 231452Z 32012KT 10SM FEW120 08/03 A2951 RMK AO2 SLP996 T00780033 53018
Loading
Personal Weather Stations






























Interactive Weather Map New forecast layout! Learn more

10-Day Weather Forecast

Advertisements
Track Severe Weather on mobile